Time;durP1;ratioP1;P1;durP2;ratioP2;P2;SDS_P1;SDS_P2;PMS_P1;PMS_P2;Temp;Humidity;BMP_temperature;BMP_pressure;BME280_temperature;BME280_humidity;BME280_pressure;Samples;Min_cycle;Max_cycle;Signal;HPM_P1;HPM_P2
2023/08/15 00:02:16;;;;;;;6.70;2.03;;;24.10;58.00;25.80;101063.00;;;;5043558;28;20196;-80
2023/08/15 00:04:43;;;;;;;4.88;2.00;;;24.10;58.00;25.80;101062.00;;;;5048418;28;20220;-80
2023/08/15 00:07:10;;;;;;;3.78;2.15;;;24.20;58.10;25.80;101058.00;;;;5046073;28;20413;-81
2023/08/15 00:09:38;;;;;;;3.13;2.13;;;24.10;58.10;25.80;101065.00;;;;5043778;28;20227;-81
2023/08/15 00:12:07;;;;;;;3.40;2.08;;;24.10;58.10;25.70;101061.00;;;;5049018;28;20316;-80
2023/08/15 00:14:35;;;;;;;1.98;1.75;;;24.10;58.10;25.80;101053.00;;;;5042111;28;20207;-80
2023/08/15 00:17:03;;;;;;;3.15;2.00;;;24.10;58.10;25.70;101047.00;;;;5049069;28;20206;-80
2023/08/15 00:19:30;;;;;;;5.05;1.70;;;24.10;58.20;25.70;101060.00;;;;5045128;28;20198;-80
2023/08/15 00:21:57;;;;;;;2.00;1.80;;;24.10;58.20;25.70;101047.00;;;;5045058;28;20630;-80
2023/08/15 00:24:24;;;;;;;3.03;1.90;;;24.10;58.20;25.70;101056.00;;;;5048028;28;20196;-80
2023/08/15 00:26:51;;;;;;;2.63;2.00;;;24.10;58.30;25.70;101061.00;;;;5048274;28;20278;-80
2023/08/15 00:29:19;;;;;;;4.15;2.08;;;24.00;58.30;25.70;101065.00;;;;5040650;28;20208;-81
2023/08/15 00:31:46;;;;;;;2.70;1.80;;;24.00;58.40;25.70;101068.00;;;;5049020;28;20231;-80
2023/08/15 00:34:13;;;;;;;3.97;1.88;;;24.00;58.40;25.70;101071.00;;;;5049295;28;20200;-80
2023/08/15 00:36:40;;;;;;;2.85;2.10;;;24.00;58.40;25.70;101079.00;;;;5044918;28;20283;-80
2023/08/15 00:39:07;;;;;;;6.75;1.83;;;24.00;58.40;25.60;101068.00;;;;5047279;28;20192;-79
2023/08/15 00:41:34;;;;;;;3.00;1.63;;;24.00;58.40;25.60;101069.00;;;;5048627;28;20277;-79
2023/08/15 00:44:01;;;;;;;3.78;1.65;;;23.90;58.50;25.60;101070.00;;;;5048407;28;20191;-80
2023/08/15 00:46:31;;;;;;;2.65;1.70;;;23.90;58.50;25.60;101073.00;;;;5048184;28;20234;-80
2023/08/15 00:48:59;;;;;;;3.63;2.08;;;23.90;58.50;25.50;101078.00;;;;5040066;28;20195;-80
2023/08/15 00:51:28;;;;;;;2.67;1.50;;;23.90;58.50;25.50;101077.00;;;;5048758;28;20710;-80
2023/08/15 00:53:55;;;;;;;3.25;1.90;;;23.90;58.60;25.50;101081.00;;;;5043062;28;20206;-80
2023/08/15 00:56:23;;;;;;;2.92;1.95;;;23.80;58.60;25.50;101081.00;;;;5048927;28;20200;-80
2023/08/15 00:58:51;;;;;;;3.30;1.83;;;23.80;58.70;25.50;101085.00;;;;5044589;28;20667;-80
2023/08/15 01:01:21;;;;;;;2.85;2.10;;;23.80;58.70;25.40;101074.00;;;;5047003;28;20215;-80
2023/08/15 01:03:51;;;;;;;6.00;2.22;;;23.80;58.70;25.40;101092.00;;;;5047789;28;20202;-80
2023/08/15 01:06:18;;;;;;;2.60;1.80;;;23.70;58.80;25.40;101087.00;;;;5046495;28;20207;-80
2023/08/15 01:08:45;;;;;;;4.85;2.00;;;23.70;58.80;25.40;101090.00;;;;5046316;28;20587;-80
2023/08/15 01:11:12;;;;;;;2.28;1.83;;;23.70;58.80;25.30;101094.00;;;;5047844;28;20823;-80
2023/08/15 01:13:50;;;;;;;2.97;1.83;;;23.60;58.80;25.20;101093.00;;;;5048171;28;20207;-80
2023/08/15 01:16:28;;;;;;;2.35;1.90;;;23.60;58.90;25.20;101094.00;;;;5046146;28;20195;-80
2023/08/15 01:19:06;;;;;;;2.85;1.65;;;23.60;59.00;25.20;101093.00;;;;5042286;28;20200;-80
2023/08/15 01:21:42;;;;;;;4.15;2.30;;;23.60;59.00;25.10;101087.00;;;;5039052;28;20667;-80
2023/08/15 01:24:10;;;;;;;2.95;1.92;;;23.60;59.00;25.20;101088.00;;;;5044505;28;20203;-80
2023/08/15 01:26:37;;;;;;;2.63;1.90;;;23.50;58.90;25.20;101082.00;;;;5048680;28;20203;-80
2023/08/15 01:29:04;;;;;;;3.15;1.90;;;23.50;59.00;25.20;101083.00;;;;5042394;28;20682;-80
2023/08/15 01:31:37;;;;;;;3.85;1.83;;;23.50;59.10;25.10;101078.00;;;;5046867;28;20218;-80
2023/08/15 01:34:13;;;;;;;6.55;2.22;;;23.40;59.20;25.00;101077.00;;;;5046006;28;20188;-80
2023/08/15 01:36:46;;;;;;;2.67;1.95;;;23.40;59.30;25.10;101077.00;;;;5044739;28;20187;-80
2023/08/15 01:39:23;;;;;;;2.17;1.60;;;23.40;59.20;25.00;101071.00;;;;5046452;28;20689;-80
2023/08/15 01:41:54;;;;;;;3.47;1.83;;;23.40;59.40;25.00;101076.00;;;;5047094;28;20192;-80
2023/08/15 01:44:22;;;;;;;2.05;1.58;;;23.40;59.40;25.10;101072.00;;;;5039330;28;20258;-80
2023/08/15 01:46:50;;;;;;;2.88;1.83;;;23.30;59.90;25.10;101068.00;;;;5047827;28;20226;-80
2023/08/15 01:49:17;;;;;;;1.92;1.73;;;23.30;59.40;25.00;101058.00;;;;5047259;28;20192;-80
2023/08/15 01:51:44;;;;;;;4.55;2.05;;;23.30;59.40;25.00;101068.00;;;;5045859;28;20227;-80
2023/08/15 01:54:11;;;;;;;3.83;1.63;;;23.30;59.50;25.00;101059.00;;;;5047014;28;20210;-80
2023/08/15 01:56:39;;;;;;;2.60;1.50;;;23.30;59.50;25.00;101065.00;;;;5046775;28;20196;-80
2023/08/15 01:59:06;;;;;;;2.45;1.60;;;23.30;59.50;25.00;101066.00;;;;5043115;28;20314;-80
2023/08/15 02:01:33;;;;;;;2.72;1.85;;;23.30;59.50;25.00;101073.00;;;;5046852;28;20199;-80
2023/08/15 02:04:00;;;;;;;3.42;1.85;;;23.30;59.50;25.00;101073.00;;;;5046654;28;20199;-80
2023/08/15 02:06:27;;;;;;;1.98;1.27;;;23.20;59.40;25.00;101075.00;;;;5047239;28;20574;-80
2023/08/15 02:08:54;;;;;;;2.22;2.03;;;23.20;59.40;24.90;101078.00;;;;5045783;28;20225;-80
2023/08/15 02:11:21;;;;;;;3.38;1.88;;;23.30;59.50;24.90;101076.00;;;;5039620;28;20569;-80
2023/08/15 02:13:49;;;;;;;3.90;1.80;;;23.30;59.50;24.90;101095.00;;;;5037398;28;20571;-80
2023/08/15 02:16:17;;;;;;;2.03;1.58;;;23.20;59.50;24.90;101093.00;;;;5047645;28;20211;-80
2023/08/15 02:18:44;;;;;;;1.80;1.60;;;23.20;59.50;24.90;101093.00;;;;5040452;28;20676;-80
2023/08/15 02:21:11;;;;;;;5.90;2.00;;;23.20;59.40;24.90;101096.00;;;;5046779;28;20196;-80
2023/08/15 02:23:38;;;;;;;2.13;1.40;;;23.20;59.30;24.80;101102.00;;;;5044980;28;20215;-80
2023/08/15 02:26:05;;;;;;;3.70;1.45;;;23.20;59.40;24.80;101104.00;;;;5040591;28;20192;-80
2023/08/15 02:28:32;;;;;;;2.70;1.70;;;23.10;59.30;24.80;101108.00;;;;5041752;28;20204;-80
2023/08/15 02:31:04;;;;;;;2.35;1.50;;;23.10;59.30;24.80;101116.00;;;;5038971;28;20195;-80
2023/08/15 02:33:31;;;;;;;2.45;1.63;;;23.10;59.40;24.70;101118.00;;;;5047418;28;20202;-80
2023/08/15 02:36:06;;;;;;;2.58;1.60;;;23.10;59.40;24.70;101128.00;;;;5046428;28;20202;-79
2023/08/15 02:38:34;;;;;;;5.43;1.75;;;23.00;59.50;24.70;101135.00;;;;5043153;28;20261;-80
2023/08/15 02:41:01;;;;;;;2.80;1.55;;;23.00;59.50;24.70;101137.00;;;;5040111;28;20212;-80
2023/08/15 02:43:28;;;;;;;4.63;1.38;;;23.00;59.50;24.70;101139.00;;;;5043472;28;20199;-80
2023/08/15 02:45:55;;;;;;;2.33;1.55;;;23.00;59.60;24.70;101137.00;;;;5044312;28;20210;-80
2023/08/15 02:48:23;;;;;;;4.05;1.83;;;23.00;59.70;24.60;101140.00;;;;5047393;28;20222;-81
2023/08/15 02:50:50;;;;;;;2.83;1.92;;;22.90;59.60;24.60;101134.00;;;;5046298;28;20199;-80
2023/08/15 02:53:17;;;;;;;6.80;2.30;;;22.90;59.60;24.60;101139.00;;;;5047349;28;20223;-80
2023/08/15 02:55:44;;;;;;;6.38;2.20;;;22.90;59.70;24.60;101145.00;;;;5041611;28;20589;-81
2023/08/15 02:58:11;;;;;;;3.22;1.95;;;22.90;59.70;24.60;101150.00;;;;5044858;28;20210;-81
2023/08/15 03:00:38;;;;;;;3.58;1.75;;;22.90;59.70;24.60;101153.00;;;;5040650;28;20602;-81
2023/08/15 03:03:05;;;;;;;5.22;2.25;;;22.90;59.80;24.60;101148.00;;;;5046095;28;20258;-81
2023/08/15 03:05:33;;;;;;;3.13;1.83;;;22.80;59.80;24.50;101153.00;;;;5046456;28;20322;-80
2023/08/15 03:08:01;;;;;;;2.80;1.92;;;22.90;59.90;24.60;101151.00;;;;5045882;28;20207;-80
2023/08/15 03:10:27;;;;;;;4.10;2.15;;;22.80;59.80;24.50;101158.00;;;;5042799;28;20204;-80
2023/08/15 03:12:54;;;;;;;4.38;2.50;;;22.80;59.80;24.50;101151.00;;;;5045582;28;20706;-81
2023/08/15 03:15:21;;;;;;;3.55;2.28;;;22.80;59.80;24.50;101148.00;;;;5039991;28;20196;-80
2023/08/15 03:17:48;;;;;;;2.85;1.92;;;22.80;59.90;24.50;101140.00;;;;5046478;28;20203;-80
2023/08/15 03:20:15;;;;;;;5.38;2.40;;;22.70;59.80;24.40;101132.00;;;;5044493;28;20204;-80
2023/08/15 03:22:44;;;;;;;3.58;2.25;;;22.70;59.80;24.40;101141.00;;;;5044888;28;20203;-80
2023/08/15 03:25:11;;;;;;;2.90;2.00;;;22.70;59.90;24.40;101141.00;;;;5047671;28;20223;-80
2023/08/15 03:27:38;;;;;;;3.75;1.80;;;22.70;59.90;24.40;101144.00;;;;5050133;28;20195;-81
2023/08/15 03:30:07;;;;;;;6.53;2.42;;;22.60;59.90;24.30;101139.00;;;;5049028;28;20196;-80
2023/08/15 03:32:34;;;;;;;4.93;2.35;;;22.60;60.00;24.30;101151.00;;;;5049103;28;20222;-80
2023/08/15 03:35:01;;;;;;;4.65;2.10;;;22.60;60.00;24.30;101137.00;;;;5048635;28;20199;-80
2023/08/15 03:37:28;;;;;;;6.72;2.30;;;22.60;60.10;24.30;101137.00;;;;5050268;28;20250;-80
2023/08/15 03:39:56;;;;;;;4.10;2.42;;;22.60;60.20;24.30;101131.00;;;;5042194;28;20214;-81
2023/08/15 03:42:23;;;;;;;4.35;2.00;;;22.60;60.30;24.30;101131.00;;;;5047320;28;20222;-81
2023/08/15 03:44:50;;;;;;;5.70;2.08;;;22.60;60.40;24.20;101128.00;;;;5047531;28;20562;-80
2023/08/15 03:47:17;;;;;;;4.82;2.08;;;22.60;60.40;24.20;101128.00;;;;5050485;28;20576;-80
2023/08/15 03:49:44;;;;;;;2.13;1.52;;;22.50;60.40;24.20;101137.00;;;;5048472;28;20738;-81
2023/08/15 03:52:11;;;;;;;3.95;1.98;;;22.50;60.50;24.20;101148.00;;;;5049099;28;20746;-80
2023/08/15 03:54:37;;;;;;;1.83;1.27;;;22.50;60.50;24.20;101143.00;;;;5049701;28;20207;-80
2023/08/15 03:57:06;;;;;;;5.80;2.00;;;22.50;60.60;24.20;101135.00;;;;5050130;28;20200;-81
2023/08/15 03:59:33;;;;;;;5.55;1.70;;;22.50;60.70;24.20;101146.00;;;;5048857;28;20199;-80
2023/08/15 04:02:00;;;;;;;4.30;2.28;;;22.50;60.70;24.20;101148.00;;;;5050763;28;20195;-80
2023/08/15 04:04:27;;;;;;;2.97;1.33;;;22.50;60.70;24.10;101150.00;;;;5050373;28;20220;-81
2023/08/15 04:06:53;;;;;;;4.13;1.95;;;22.50;60.80;24.10;101156.00;;;;5033994;28;20219;-81
2023/08/15 04:09:21;;;;;;;3.00;1.92;;;22.40;60.80;24.10;101157.00;;;;5038763;28;20594;-81
2023/08/15 04:11:48;;;;;;;2.63;1.55;;;22.40;60.80;24.10;101150.00;;;;5030327;28;20201;-81
2023/08/15 04:14:16;;;;;;;3.75;1.48;;;22.40;60.90;24.10;101142.00;;;;5042168;28;20687;-81
2023/08/15 04:16:43;;;;;;;4.28;2.58;;;22.40;60.90;24.10;101140.00;;;;5047701;28;20195;-82
2023/08/15 04:19:10;;;;;;;5.10;1.58;;;22.40;60.90;24.10;101138.00;;;;5050132;28;20196;-81
2023/08/15 04:21:37;;;;;;;5.88;1.88;;;22.40;61.10;24.00;101145.00;;;;5050321;28;20287;-82
2023/08/15 04:24:05;;;;;;;3.85;1.70;;;22.30;61.00;24.00;101160.00;;;;5048141;28;20210;-82
2023/08/15 04:26:32;;;;;;;3.80;1.63;;;22.40;61.20;24.00;101156.00;;;;5047001;28;20996;-81
2023/08/15 04:28:59;;;;;;;2.83;1.65;;;22.30;61.10;24.00;101162.00;;;;5049042;28;20207;-81
2023/08/15 04:31:27;;;;;;;3.88;1.98;;;22.30;61.20;24.00;101156.00;;;;5046817;28;20195;-80
2023/08/15 04:33:54;;;;;;;2.47;1.45;;;22.30;61.30;24.00;101161.00;;;;5049051;28;20220;-80
2023/08/15 04:36:21;;;;;;;2.92;1.45;;;22.30;61.30;24.00;101155.00;;;;5042937;28;20673;-80
2023/08/15 04:38:48;;;;;;;4.93;1.90;;;22.30;61.40;24.00;101157.00;;;;5048543;28;20214;-80
2023/08/15 04:41:17;;;;;;;4.72;1.77;;;22.30;61.40;24.00;101161.00;;;;5047424;28;20207;-80
2023/08/15 04:43:44;;;;;;;3.60;1.70;;;22.30;61.60;24.00;101163.00;;;;5048589;28;20536;-80
2023/08/15 04:46:11;;;;;;;4.22;1.30;;;22.30;61.60;23.90;101166.00;;;;5046785;28;20200;-80
2023/08/15 04:48:39;;;;;;;4.38;1.70;;;22.20;61.60;23.90;101172.00;;;;5045656;28;20203;-81
2023/08/15 04:51:06;;;;;;;5.63;1.52;;;22.20;61.70;23.90;101174.00;;;;5048444;28;20202;-80
2023/08/15 04:53:33;;;;;;;7.53;2.15;;;22.20;61.80;23.90;101179.00;;;;5048176;28;20227;-80
2023/08/15 04:56:00;;;;;;;3.80;1.35;;;22.20;61.80;23.90;101175.00;;;;5048430;28;20195;-80
2023/08/15 04:58:27;;;;;;;2.92;1.58;;;22.20;61.90;23.90;101173.00;;;;5041105;28;20247;-80
2023/08/15 05:00:54;;;;;;;2.67;1.73;;;22.20;61.90;23.90;101185.00;;;;5046379;28;20207;-80
2023/08/15 05:03:21;;;;;;;3.78;1.50;;;22.20;62.00;23.90;101192.00;;;;5048337;28;20208;-80
2023/08/15 05:05:49;;;;;;;3.60;1.63;;;22.20;62.10;23.90;101195.00;;;;5046466;28;20228;-80
2023/08/15 05:08:16;;;;;;;2.90;1.80;;;22.20;62.20;23.90;101203.00;;;;5043504;28;20204;-80
2023/08/15 05:10:43;;;;;;;1.98;1.15;;;22.20;62.20;23.90;101205.00;;;;5048118;28;20195;-81
2023/08/15 05:13:10;;;;;;;6.20;1.88;;;22.20;62.30;23.90;101210.00;;;;5048170;28;20984;-80
2023/08/15 05:15:37;;;;;;;2.47;1.25;;;22.20;62.30;23.90;101214.00;;;;5045029;28;20571;-80
2023/08/15 05:18:05;;;;;;;3.20;1.80;;;22.20;62.40;23.90;101214.00;;;;5041632;28;20278;-80
2023/08/15 05:20:34;;;;;;;3.03;1.63;;;22.20;62.40;24.00;101216.00;;;;5039313;28;20212;-81
2023/08/15 05:23:02;;;;;;;2.70;1.50;;;22.20;62.60;23.90;101218.00;;;;5048091;28;20199;-80
2023/08/15 05:25:29;;;;;;;3.20;1.33;;;22.20;62.70;24.00;101227.00;;;;5047481;28;20210;-80
2023/08/15 05:27:56;;;;;;;2.70;1.65;;;22.20;62.70;24.00;101227.00;;;;5043770;28;20199;-80
2023/08/15 05:30:24;;;;;;;4.93;1.70;;;22.30;62.90;24.00;101226.00;;;;5048550;28;20214;-80
2023/08/15 05:32:51;;;;;;;6.30;1.77;;;22.30;62.90;24.00;101228.00;;;;5046220;28;20343;-80
2023/08/15 05:35:18;;;;;;;2.90;1.33;;;22.40;63.10;24.10;101232.00;;;;5043281;28;20710;-80
2023/08/15 05:37:46;;;;;;;6.75;1.83;;;22.30;63.00;24.10;101238.00;;;;5040089;28;20193;-80
2023/08/15 05:40:14;;;;;;;3.58;1.45;;;22.40;63.20;24.10;101248.00;;;;5047668;28;20278;-80
2023/08/15 05:42:41;;;;;;;3.83;1.45;;;22.40;63.30;24.20;101248.00;;;;5046409;28;20195;-80
2023/08/15 05:45:10;;;;;;;3.55;1.75;;;22.50;63.30;24.20;101256.00;;;;5030247;28;20284;-80
2023/08/15 05:47:37;;;;;;;4.90;1.83;;;22.50;63.30;24.30;101256.00;;;;5046810;28;20211;-80
2023/08/15 05:50:06;;;;;;;3.15;1.40;;;22.60;63.30;24.30;101264.00;;;;5046958;28;20852;-80
2023/08/15 05:52:33;;;;;;;4.13;1.65;;;22.60;63.50;24.30;101268.00;;;;5044009;28;20219;-80
2023/08/15 05:55:00;;;;;;;4.72;1.73;;;22.60;63.50;24.40;101268.00;;;;5044573;28;20206;-80
2023/08/15 05:57:29;;;;;;;3.22;1.73;;;22.70;63.60;24.40;101264.00;;;;5047496;28;20203;-80
2023/08/15 05:59:56;;;;;;;3.42;1.40;;;22.80;63.70;24.50;101261.00;;;;5049008;28;20202;-80
2023/08/15 06:02:23;;;;;;;7.18;2.22;;;22.80;63.60;24.60;101260.00;;;;5046527;28;20199;-80
2023/08/15 06:04:50;;;;;;;4.70;1.70;;;22.90;63.70;24.60;101255.00;;;;5042257;28;20603;-80
2023/08/15 06:07:17;;;;;;;3.53;1.42;;;22.90;63.70;24.70;101263.00;;;;5046983;28;20203;-80
2023/08/15 06:09:44;;;;;;;5.53;2.13;;;23.00;63.80;24.70;101258.00;;;;5045350;28;20571;-80
2023/08/15 06:12:11;;;;;;;4.55;1.73;;;23.00;63.70;24.80;101269.00;;;;5047520;28;20206;-80
2023/08/15 06:14:41;;;;;;;4.30;2.13;;;23.10;63.70;24.80;101269.00;;;;5046397;28;20230;-81
2023/08/15 06:17:08;;;;;;;4.20;1.73;;;23.10;63.70;24.90;101272.00;;;;5041507;28;20330;-80
2023/08/15 06:19:35;;;;;;;3.30;1.75;;;23.20;63.60;24.90;101272.00;;;;5045978;28;21030;-79
2023/08/15 06:22:02;;;;;;;11.45;2.10;;;23.30;63.70;25.00;101273.00;;;;5047329;28;20283;-80
2023/08/15 06:24:29;;;;;;;4.15;2.03;;;23.30;63.60;25.10;101289.00;;;;5045629;28;20318;-80
2023/08/15 06:26:56;;;;;;;8.30;1.63;;;23.40;63.70;25.10;101287.00;;;;5043143;28;20644;-79
2023/08/15 06:29:25;;;;;;;4.82;1.83;;;23.40;63.50;25.20;101292.00;;;;5046765;28;20200;-79
2023/08/15 06:31:54;;;;;;;4.20;1.83;;;23.50;63.60;25.20;101296.00;;;;5043734;28;20262;-80
2023/08/15 06:34:21;;;;;;;6.07;1.75;;;23.50;63.60;25.30;101297.00;;;;5038435;28;20230;-79
2023/08/15 06:36:48;;;;;;;5.15;2.10;;;23.60;63.60;25.40;101300.00;;;;5036460;28;20200;-80
2023/08/15 06:39:15;;;;;;;3.83;1.80;;;23.70;63.60;25.50;101308.00;;;;5042420;28;20208;-80
2023/08/15 06:41:42;;;;;;;3.15;1.70;;;23.80;63.70;25.50;101305.00;;;;5041767;28;20218;-80
2023/08/15 06:44:09;;;;;;;6.97;1.85;;;23.80;63.50;25.60;101308.00;;;;5046030;28;20698;-80
2023/08/15 06:46:36;;;;;;;6.63;1.88;;;23.90;63.60;25.70;101309.00;;;;5045140;28;20215;-80
2023/08/15 06:49:04;;;;;;;4.55;1.80;;;24.00;63.50;25.70;101311.00;;;;5039679;28;20207;-81
2023/08/15 06:51:31;;;;;;;3.53;1.77;;;24.10;63.40;25.70;101315.00;;;;5046135;28;20200;-81
2023/08/15 06:53:58;;;;;;;7.82;2.45;;;24.10;63.00;25.80;101319.00;;;;5045126;28;20230;-81
2023/08/15 06:56:25;;;;;;;4.63;1.95;;;24.20;62.80;25.80;101310.00;;;;5042843;28;20218;-82
2023/08/15 06:58:52;;;;;;;2.67;1.38;;;24.20;62.70;25.80;101312.00;;;;5042667;28;20562;-81
2023/08/15 07:01:20;;;;;;;7.40;1.45;;;24.30;62.70;25.80;101318.00;;;;5045505;28;20207;-80
2023/08/15 07:03:47;;;;;;;3.53;1.70;;;24.30;62.50;25.90;101315.00;;;;5047252;28;20202;-81
2023/08/15 07:06:16;;;;;;;4.35;1.88;;;24.30;62.40;25.90;101312.00;;;;5045744;28;20231;-80
2023/08/15 07:08:43;;;;;;;3.58;1.90;;;24.40;62.40;25.90;101318.00;;;;5045714;28;20311;-81
2023/08/15 07:11:10;;;;;;;5.90;1.88;;;24.40;62.30;26.00;101320.00;;;;5045781;28;20195;-81
2023/08/15 07:13:36;;;;;;;1.92;1.30;;;24.40;62.30;26.00;101315.00;;;;5045881;28;20219;-82
2023/08/15 07:16:04;;;;;;;5.38;1.95;;;24.50;62.30;26.00;101318.00;;;;5043007;28;20570;-81
2023/08/15 07:18:31;;;;;;;4.55;1.58;;;24.50;62.30;26.00;101334.00;;;;5044667;28;20205;-81
2023/08/15 07:20:59;;;;;;;3.78;1.45;;;24.50;62.10;26.00;101336.00;;;;5045676;28;20686;-80
2023/08/15 07:23:28;;;;;;;4.60;1.30;;;24.50;62.10;26.00;101325.00;;;;5038775;28;20200;-80
2023/08/15 07:25:54;;;;;;;2.67;1.52;;;24.50;62.00;26.10;101343.00;;;;5045586;28;20222;-79
2023/08/15 07:28:21;;;;;;;3.38;1.42;;;24.50;61.90;26.10;101339.00;;;;5041943;28;20200;-79
2023/08/15 07:30:48;;;;;;;4.57;1.83;;;24.60;62.00;26.10;101346.00;;;;5043184;28;20203;-79
2023/08/15 07:33:16;;;;;;;6.05;1.95;;;24.60;62.00;26.10;101338.00;;;;5043952;28;20285;-79
2023/08/15 07:35:43;;;;;;;2.35;1.45;;;24.60;61.90;26.10;101334.00;;;;5045996;28;20199;-80
2023/08/15 07:38:10;;;;;;;2.55;1.45;;;24.60;61.90;26.20;101336.00;;;;5046183;28;20199;-81
2023/08/15 07:40:38;;;;;;;6.68;2.30;;;24.60;61.90;26.20;101341.00;;;;5046905;28;20191;-81
2023/08/15 07:43:05;;;;;;;4.85;1.98;;;24.60;61.90;26.20;101352.00;;;;5047955;28;20195;-80
2023/08/15 07:45:32;;;;;;;3.90;1.77;;;24.60;61.80;26.30;101355.00;;;;5046711;28;20200;-81
2023/08/15 07:47:59;;;;;;;5.25;2.03;;;24.70;61.80;26.30;101342.00;;;;5047535;28;20215;-80
2023/08/15 07:50:29;;;;;;;4.70;1.92;;;24.70;61.80;26.30;101346.00;;;;5045945;28;20249;-80
2023/08/15 07:52:58;;;;;;;6.72;2.05;;;24.70;61.70;26.30;101349.00;;;;5045288;28;20199;-79
2023/08/15 07:55:27;;;;;;;6.13;1.73;;;24.80;61.70;26.30;101361.00;;;;5045750;28;20198;-79
2023/08/15 07:57:55;;;;;;;5.00;2.03;;;24.70;61.50;26.30;101356.00;;;;5043282;28;20254;-80
2023/08/15 08:00:23;;;;;;;3.22;1.85;;;24.80;61.50;26.30;101370.00;;;;5040937;28;20205;-82
2023/08/15 08:02:49;;;;;;;6.00;2.20;;;24.70;61.30;26.20;101373.00;;;;5044218;28;20195;-81
2023/08/15 08:05:17;;;;;;;5.78;2.13;;;24.70;61.10;26.20;101366.00;;;;5037100;28;20229;-81
2023/08/15 08:07:45;;;;;;;5.45;2.05;;;24.80;61.20;26.20;101369.00;;;;5045490;28;20199;-81
2023/08/15 08:10:13;;;;;;;7.97;2.17;;;24.70;61.20;26.30;101377.00;;;;5046915;28;20207;-81
2023/08/15 08:12:40;;;;;;;6.90;1.80;;;24.70;61.30;26.30;101380.00;;;;5041346;28;20207;-82
2023/08/15 08:15:10;;;;;;;4.50;1.90;;;24.80;61.70;26.40;101374.00;;;;5049343;28;20227;-83
2023/08/15 08:17:37;;;;;;;2.63;1.75;;;24.80;61.80;26.50;101380.00;;;;5048619;28;20227;-83
2023/08/15 08:20:11;;;;;;;3.05;1.73;;;24.90;61.90;26.60;101377.00;;;;5048678;28;20222;-83
2023/08/15 08:22:38;;;;;;;3.63;1.83;;;25.00;61.90;26.70;101366.00;;;;5047122;28;20206;-82
2023/08/15 08:25:17;;;;;;;3.88;1.55;;;25.10;61.90;26.70;101372.00;;;;5048165;28;20196;-82
2023/08/15 08:27:44;;;;;;;3.15;1.75;;;25.20;61.80;26.90;101382.00;;;;5050163;28;20596;-82
2023/08/15 08:30:14;;;;;;;6.60;2.00;;;25.30;61.70;26.90;101379.00;;;;5048769;28;20245;-81
2023/08/15 08:32:41;;;;;;;2.70;1.50;;;25.40;61.60;27.00;101385.00;;;;5049207;28;20192;-81
2023/08/15 08:35:10;;;;;;;5.82;1.92;;;25.40;61.40;27.10;101376.00;;;;5048000;28;20221;-80
2023/08/15 08:37:37;;;;;;;7.15;2.15;;;25.50;61.40;27.20;101385.00;;;;5047995;28;20203;-81
2023/08/15 08:40:05;;;;;;;6.28;2.97;;;25.60;61.50;27.30;101389.00;;;;5048200;28;20198;-82
2023/08/15 08:42:33;;;;;;;5.15;2.42;;;25.70;61.60;27.40;101394.00;;;;5048907;28;20555;-81
2023/08/15 08:45:01;;;;;;;5.93;1.90;;;25.80;61.20;27.40;101390.00;;;;5048849;28;20200;-81
2023/08/15 08:47:34;;;;;;;4.43;2.17;;;25.90;61.00;27.50;101384.00;;;;5047752;28;20231;-81
2023/08/15 08:50:01;;;;;;;4.72;2.35;;;26.00;60.90;27.60;101389.00;;;;5042336;28;20207;-80
2023/08/15 08:52:29;;;;;;;6.00;3.10;;;26.00;60.60;27.60;101387.00;;;;5047972;28;20283;-81
2023/08/15 08:54:56;;;;;;;6.03;3.10;;;26.10;60.30;27.60;101398.00;;;;5043266;28;20219;-81
2023/08/15 08:57:29;;;;;;;6.88;2.40;;;26.10;60.00;27.60;101390.00;;;;5047590;28;20203;-81
2023/08/15 08:59:58;;;;;;;4.25;2.65;;;26.10;59.80;27.60;101394.00;;;;5048332;28;20258;-82
2023/08/15 09:02:25;;;;;;;4.30;3.13;;;26.20;59.60;27.60;101389.00;;;;5048080;28;20196;-81
2023/08/15 09:04:54;;;;;;;5.63;3.05;;;26.20;59.60;27.60;101392.00;;;;5047340;28;20683;-82
2023/08/15 09:07:21;;;;;;;5.60;3.50;;;26.20;59.60;27.60;101400.00;;;;5045710;28;20249;-81
2023/08/15 09:09:48;;;;;;;4.97;4.22;;;26.20;59.70;27.70;101402.00;;;;5048116;28;20203;-82
2023/08/15 09:12:34;;;;;;;8.25;4.32;;;26.20;59.70;27.60;101391.00;;;;5047090;28;20230;-81
2023/08/15 09:15:01;;;;;;;4.75;3.75;;;26.30;59.70;27.80;101406.00;;;;5040136;28;20585;-81
2023/08/15 09:17:28;;;;;;;13.45;5.47;;;26.30;59.80;27.80;101398.00;;;;5045840;28;20199;-83
2023/08/15 09:19:56;;;;;;;6.00;4.13;;;26.40;59.80;27.90;101398.00;;;;5047157;28;20204;-80
2023/08/15 09:22:25;;;;;;;5.72;4.28;;;26.40;59.80;28.00;101400.00;;;;5046843;28;20191;-81
2023/08/15 09:24:52;;;;;;;6.78;5.00;;;26.50;60.00;28.20;101401.00;;;;5042074;28;20208;-81
2023/08/15 09:27:19;;;;;;;6.20;4.60;;;26.60;60.10;28.30;101411.00;;;;5045841;28;20199;-82
2023/08/15 09:29:46;;;;;;;5.82;5.22;;;26.70;60.10;28.30;101415.00;;;;5045192;28;20207;-81
2023/08/15 09:32:13;;;;;;;8.18;5.97;;;26.80;59.80;28.40;101417.00;;;;5048086;28;20846;-81
2023/08/15 09:34:40;;;;;;;6.15;5.35;;;26.90;59.40;28.40;101422.00;;;;5046217;28;20230;-80
2023/08/15 09:37:09;;;;;;;5.90;4.22;;;26.90;58.90;28.40;101416.00;;;;5044447;28;20807;-80
2023/08/15 09:39:39;;;;;;;7.00;3.65;;;27.00;58.70;28.40;101416.00;;;;5047600;28;20345;-79
2023/08/15 09:42:06;;;;;;;6.68;3.67;;;27.00;58.60;28.40;101422.00;;;;5046759;28;20219;-79
2023/08/15 09:44:34;;;;;;;6.07;3.47;;;27.00;58.50;28.40;101423.00;;;;5047811;28;20203;-81
2023/08/15 09:47:02;;;;;;;3.90;3.25;;;27.00;58.40;28.40;101421.00;;;;5045426;28;20215;-79
2023/08/15 09:49:30;;;;;;;8.63;3.58;;;27.00;58.40;28.40;101417.00;;;;5048105;28;20207;-79
2023/08/15 09:51:59;;;;;;;5.82;4.18;;;27.00;58.40;28.50;101427.00;;;;5047149;28;20204;-79
2023/08/15 09:54:31;;;;;;;4.38;3.03;;;27.00;58.60;28.50;101429.00;;;;5047228;28;20227;-82
2023/08/15 09:56:58;;;;;;;4.75;2.78;;;27.10;58.90;28.70;101418.00;;;;5047864;28;20196;-80
2023/08/15 09:59:25;;;;;;;5.07;3.28;;;27.20;58.90;28.70;101424.00;;;;5048906;28;20191;-80
2023/08/15 10:01:56;;;;;;;4.03;2.90;;;27.20;58.80;28.80;101428.00;;;;5048257;28;20200;-79
2023/08/15 10:04:28;;;;;;;4.63;2.65;;;27.30;58.80;28.80;101437.00;;;;5041807;28;20996;-79
2023/08/15 10:06:56;;;;;;;5.10;2.85;;;27.40;58.50;28.90;101432.00;;;;5046083;28;20567;-80
2023/08/15 10:09:24;;;;;;;5.63;3.28;;;27.40;58.30;28.90;101445.00;;;;5048932;28;20204;-79
2023/08/15 10:11:54;;;;;;;16.63;3.03;;;27.50;58.10;28.90;101452.00;;;;5048781;28;20199;-78
2023/08/15 10:14:23;;;;;;;3.20;2.17;;;27.50;57.90;28.90;101449.00;;;;5048303;28;20219;-79
2023/08/15 10:16:51;;;;;;;4.22;2.35;;;27.50;57.70;28.90;101455.00;;;;5045447;28;20196;-79
2023/08/15 10:19:18;;;;;;;3.00;2.42;;;27.60;57.60;28.90;101455.00;;;;5048134;28;20196;-79
2023/08/15 10:21:50;;;;;;;4.75;2.28;;;27.50;57.50;28.80;101456.00;;;;5045433;28;20192;-78
2023/08/15 10:24:17;;;;;;;4.68;2.55;;;27.50;57.30;28.90;101463.00;;;;5043466;28;20208;-80
2023/08/15 10:26:46;;;;;;;5.32;2.40;;;27.50;57.30;28.80;101465.00;;;;5047285;28;20215;-79
2023/08/15 10:29:14;;;;;;;2.38;1.60;;;27.50;57.20;28.80;101467.00;;;;5047578;28;20199;-79
2023/08/15 10:31:41;;;;;;;4.30;1.98;;;27.40;57.00;28.70;101473.00;;;;5043188;28;20581;-80
2023/08/15 10:34:10;;;;;;;3.40;2.35;;;27.40;57.00;28.60;101469.00;;;;5046829;28;20219;-79
2023/08/15 10:36:41;;;;;;;2.53;1.98;;;27.30;56.80;28.50;101480.00;;;;5047707;28;20211;-79
2023/08/15 10:39:08;;;;;;;5.07;2.40;;;27.20;56.80;28.50;101481.00;;;;5047436;28;20208;-80
2023/08/15 10:41:36;;;;;;;7.90;1.75;;;27.20;56.80;28.50;101479.00;;;;5047352;28;20196;-80
2023/08/15 10:44:08;;;;;;;5.57;1.77;;;27.10;56.90;28.40;101486.00;;;;5047587;28;20204;-79
2023/08/15 10:46:37;;;;;;;3.97;1.80;;;27.10;56.90;28.30;101493.00;;;;5047717;28;20671;-79
2023/08/15 10:49:08;;;;;;;3.95;2.42;;;27.00;56.90;28.20;101494.00;;;;5047735;28;20874;-80
2023/08/15 10:51:38;;;;;;;4.93;2.25;;;26.90;57.10;28.20;101496.00;;;;5047613;28;20534;-79